Time;durP1;ratioP1;P1;durP2;ratioP2;P2;SDS_P1;SDS_P2;PMS_P1;PMS_P2;Temp;Humidity;BMP_temperature;BMP_pressure;BME280_temperature;BME280_humidity;BME280_pressure;Samples;Min_cycle;Max_cycle;Signal;HPM_P1;HPM_P2
2022/10/29 00:00:24;;;;;;;19.60;9.17;;;;;;;16.73;95.13;101988.13;4970022;28;20188;-75
2022/10/29 00:02:49;;;;;;;22.43;9.43;;;;;;;16.69;95.37;101988.91;4968582;28;20247;-75
2022/10/29 00:05:15;;;;;;;20.37;10.43;;;;;;;16.70;95.51;101995.81;4971153;28;20339;-76
2022/10/29 00:07:40;;;;;;;18.67;9.90;;;;;;;16.72;95.59;102000.16;4967537;28;20220;-75
2022/10/29 00:10:07;;;;;;;21.50;10.23;;;;;;;16.66;95.97;102000.09;4970485;28;20188;-76
2022/10/29 00:12:32;;;;;;;26.27;10.07;;;;;;;16.64;95.44;102006.97;4965863;28;20212;-75
2022/10/29 00:14:58;;;;;;;19.90;10.43;;;;;;;16.57;95.69;102006.88;4968237;28;20187;-75
2022/10/29 00:17:23;;;;;;;19.93;10.03;;;;;;;16.59;95.86;102002.59;4967150;28;20916;-76
2022/10/29 00:19:48;;;;;;;19.80;9.50;;;;;;;16.56;96.17;102013.75;4969017;28;20731;-76
2022/10/29 00:22:14;;;;;;;23.17;9.87;;;;;;;16.57;95.94;102020.66;4964653;28;20223;-76
2022/10/29 00:24:39;;;;;;;24.90;9.83;;;;;;;16.55;96.26;102024.06;4966353;28;20195;-76
2022/10/29 00:27:05;;;;;;;25.40;10.57;;;;;;;16.51;96.49;102012.81;4970286;28;20228;-77
2022/10/29 00:29:30;;;;;;;20.50;9.63;;;;;;;16.45;96.44;102020.50;4970634;28;20271;-75
2022/10/29 00:31:56;;;;;;;19.23;9.57;;;;;;;16.36;96.75;102028.09;4969953;28;20232;-76
2022/10/29 00:34:21;;;;;;;23.77;10.53;;;;;;;16.34;96.79;102034.09;4971202;28;20275;-76
2022/10/29 00:36:47;;;;;;;25.63;10.87;;;;;;;16.29;96.69;102027.94;4971589;28;20188;-76
2022/10/29 00:39:14;;;;;;;23.47;10.03;;;;;;;16.24;96.41;102032.19;4971387;28;20723;-75
2022/10/29 00:41:41;;;;;;;20.37;10.30;;;;;;;16.21;96.61;102025.25;4971256;28;20212;-76
2022/10/29 00:44:21;;;;;;;21.73;10.50;;;;;;;16.16;96.82;102037.22;4968498;28;20200;-76
2022/10/29 00:46:51;;;;;;;20.20;9.80;;;;;;;16.16;97.03;102038.97;4971314;28;20654;-76
2022/10/29 00:49:18;;;;;;;26.13;10.90;;;;;;;16.10;97.03;102039.72;4969521;28;20223;-75
2022/10/29 00:51:45;;;;;;;19.30;10.93;;;;;;;16.07;97.41;102050.00;4971252;28;20208;-76
2022/10/29 00:54:12;;;;;;;26.37;11.10;;;;;;;15.97;97.06;102044.69;4970316;28;20548;-76
2022/10/29 00:56:56;;;;;;;20.00;10.10;;;;;;;15.90;97.16;102056.63;4970242;28;20605;-75
2022/10/29 00:59:22;;;;;;;23.03;9.80;;;;;;;15.82;96.85;102054.75;4971103;28;20243;-75
2022/10/29 01:01:48;;;;;;;21.33;10.90;;;;;;;15.73;96.71;102063.19;4969299;28;20220;-76
2022/10/29 01:04:15;;;;;;;22.47;9.77;;;;;;;15.77;96.45;102057.25;4970938;28;20195;-76
2022/10/29 01:06:42;;;;;;;20.77;10.73;;;;;;;15.73;97.02;102063.19;4969015;28;20200;-76
2022/10/29 01:09:08;;;;;;;24.80;11.07;;;;;;;15.72;97.20;102068.34;4970876;28;20213;-75
2022/10/29 01:11:55;;;;;;;20.33;10.33;;;;;;;15.66;97.05;102063.91;4970942;28;20208;-76
2022/10/29 01:14:29;;;;;;;20.30;10.47;;;;;;;15.63;97.01;102065.59;4970160;28;20207;-76
2022/10/29 01:17:19;;;;;;;19.93;9.97;;;;;;;15.56;97.80;102069.75;4969997;28;20616;-76
2022/10/29 01:20:15;;;;;;;22.33;10.80;;;;;;;15.56;97.41;102080.09;4969787;28;20230;-76
2022/10/29 01:23:05;;;;;;;24.30;11.03;;;;;;;15.50;97.66;102073.94;4969902;28;20320;-76
2022/10/29 01:25:35;;;;;;;21.10;10.17;;;;;;;15.45;97.35;102079.03;4965528;28;20212;-76
2022/10/29 01:28:22;;;;;;;16.63;10.20;;;;;;;15.40;97.49;102075.50;4971137;28;20248;-76
2022/10/29 01:31:32;;;;;;;19.47;11.23;;;;;;;15.41;97.78;102077.22;4983820;28;20203;-76
2022/10/29 01:34:03;;;;;;;23.17;11.33;;;;;;;15.41;97.71;102081.50;4966540;28;20527;-75
2022/10/29 01:36:35;;;;;;;19.40;10.50;;;;;;;15.40;97.88;102087.50;4969688;28;20192;-75
2022/10/29 01:39:18;;;;;;;19.20;10.83;;;;;;;15.40;97.87;102077.19;4969134;28;20188;-75
2022/10/29 01:41:44;;;;;;;20.20;10.70;;;;;;;15.36;98.65;102084.00;4970495;28;20219;-76
2022/10/29 01:44:38;;;;;;;20.27;10.30;;;;;;;15.32;98.58;102092.50;4969170;28;20569;-75
2022/10/29 01:47:08;;;;;;;20.67;11.30;;;;;;;15.28;98.65;102088.09;4972816;28;20267;-75
2022/10/29 01:49:41;;;;;;;21.00;10.77;;;;;;;15.28;98.54;102089.84;4974604;28;20247;-75
2022/10/29 01:52:10;;;;;;;19.87;11.10;;;;;;;15.31;99.17;102087.28;4970447;28;20208;-75
2022/10/29 01:54:43;;;;;;;23.17;11.10;;;;;;;15.29;99.12;102089.00;4973252;28;20197;-76
2022/10/29 01:57:31;;;;;;;22.10;11.57;;;;;;;15.31;99.13;102098.50;4974346;28;20282;-76
2022/10/29 02:00:01;;;;;;;22.20;11.80;;;;;;;15.32;99.39;102102.81;4973200;28;20192;-76
2022/10/29 02:02:46;;;;;;;20.87;11.40;;;;;;;15.30;99.76;102096.75;4973777;28;20226;-76
2022/10/29 02:05:20;;;;;;;20.93;11.73;;;;;;;15.32;99.38;102107.97;4986958;28;20203;-76
2022/10/29 02:07:53;;;;;;;21.90;10.93;;;;;;;15.34;100.00;102106.31;4971850;28;20306;-76
2022/10/29 02:10:22;;;;;;;23.63;10.97;;;;;;;15.35;99.29;102096.88;4973973;28;20188;-76
2022/10/29 02:12:50;;;;;;;22.87;10.30;;;;;;;15.34;99.74;102101.16;4973676;28;20326;-76
2022/10/29 02:15:22;;;;;;;19.80;10.67;;;;;;;15.37;99.14;102102.97;4970192;28;20188;-76
2022/10/29 02:17:48;;;;;;;19.53;10.03;;;;;;;15.38;99.49;102112.44;4970106;28;20203;-76
2022/10/29 02:20:14;;;;;;;21.37;10.33;;;;;;;15.40;99.46;102111.63;4973617;28;20204;-76
2022/10/29 02:22:40;;;;;;;20.87;9.50;;;;;;;15.44;99.22;102103.09;4969188;28;20207;-76
2022/10/29 02:25:07;;;;;;;18.43;8.60;;;;;;;15.46;99.45;102104.00;4973635;28;20197;-76
2022/10/29 02:27:33;;;;;;;24.00;10.67;;;;;;;15.45;99.39;102109.13;4971946;28;20224;-75
2022/10/29 02:29:59;;;;;;;24.77;9.73;;;;;;;15.46;99.07;102105.69;4972368;28;20184;-75
2022/10/29 02:32:24;;;;;;;21.60;9.30;;;;;;;15.44;99.36;102102.22;4973377;28;20218;-75
2022/10/29 02:34:50;;;;;;;25.23;9.80;;;;;;;15.44;99.43;102109.97;4963195;28;20193;-75
2022/10/29 02:37:15;;;;;;;22.67;10.40;;;;;;;15.40;99.88;102105.59;4973151;28;20235;-75
2022/10/29 02:39:40;;;;;;;19.40;10.17;;;;;;;15.36;100.00;102104.66;4972312;28;20658;-75
2022/10/29 02:42:06;;;;;;;24.83;11.17;;;;;;;15.33;99.86;102095.97;4972000;28;20217;-75
2022/10/29 02:44:31;;;;;;;20.00;10.63;;;;;;;15.31;100.00;102075.28;4973263;28;20291;-75
2022/10/29 02:46:57;;;;;;;26.17;11.27;;;;;;;15.22;100.00;102080.25;4968668;28;20197;-75
2022/10/29 02:49:22;;;;;;;27.27;11.57;;;;;;;15.18;100.00;102083.59;4969462;28;20216;-75
2022/10/29 02:51:47;;;;;;;24.57;11.67;;;;;;;15.14;100.00;102075.78;4972937;28;20212;-74
2022/10/29 02:54:13;;;;;;;30.07;12.33;;;;;;;15.08;100.00;102075.63;4969159;28;20185;-75
2022/10/29 02:56:38;;;;;;;26.90;12.47;;;;;;;15.07;100.00;102068.72;4971879;28;20646;-75
2022/10/29 02:59:04;;;;;;;21.70;11.83;;;;;;;15.02;100.00;102058.34;4971838;28;20547;-75
2022/10/29 03:01:29;;;;;;;26.63;11.70;;;;;;;14.98;100.00;102059.09;4971750;28;20918;-75
2022/10/29 03:03:54;;;;;;;19.27;10.93;;;;;;;14.96;100.00;102077.97;4971571;28;20247;-75
2022/10/29 03:06:20;;;;;;;23.20;11.47;;;;;;;14.97;100.00;102079.69;4966732;28;20263;-75
2022/10/29 03:08:46;;;;;;;23.03;10.77;;;;;;;14.94;100.00;102083.09;4971831;28;20235;-75
2022/10/29 03:11:11;;;;;;;25.70;11.60;;;;;;;14.91;100.00;102087.31;4973108;28;20204;-76
2022/10/29 03:13:37;;;;;;;27.57;11.37;;;;;;;14.86;100.00;102092.38;4972850;28;20319;-76
2022/10/29 03:16:04;;;;;;;23.57;11.23;;;;;;;14.82;100.00;102081.97;4969941;28;20256;-75
2022/10/29 03:18:29;;;;;;;24.20;11.00;;;;;;;14.79;100.00;102089.63;4973067;28;20198;-75
2022/10/29 03:20:55;;;;;;;21.53;10.90;;;;;;;14.71;100.00;102088.56;4970079;28;20192;-76
2022/10/29 03:23:21;;;;;;;15.70;9.90;;;;;;;14.52;99.71;102102.75;4971208;28;20212;-76
2022/10/29 03:25:52;;;;;;;22.80;10.13;;;;;;;14.46;98.85;102094.84;4972779;28;20196;-75
2022/10/29 03:28:18;;;;;;;20.17;9.27;;;;;;;14.34;99.15;102101.44;4972645;28;20686;-75
2022/10/29 03:30:43;;;;;;;17.00;9.80;;;;;;;14.28;98.53;102096.13;4972429;28;20200;-75
2022/10/29 03:33:09;;;;;;;23.13;9.57;;;;;;;14.30;98.23;102105.66;4972203;28;20254;-75
2022/10/29 03:35:34;;;;;;;16.07;9.80;;;;;;;14.29;98.21;102100.44;4968620;28;20212;-75
2022/10/29 03:38:00;;;;;;;21.37;9.70;;;;;;;14.19;98.54;102104.50;4972466;28;21292;-75
2022/10/29 03:40:25;;;;;;;21.57;10.23;;;;;;;14.16;98.32;102106.09;4969735;28;20188;-75
2022/10/29 03:42:51;;;;;;;18.10;9.93;;;;;;;14.13;97.79;102108.63;4970575;28;20272;-75
2022/10/29 03:45:16;;;;;;;16.20;9.03;;;;;;;14.06;98.58;102105.00;4972367;28;20208;-76
2022/10/29 03:47:41;;;;;;;19.40;9.60;;;;;;;14.02;98.61;102094.56;4972042;28;20980;-75
2022/10/29 03:50:08;;;;;;;20.63;9.70;;;;;;;13.95;99.22;102090.97;4965944;28;20199;-75
2022/10/29 03:52:33;;;;;;;16.43;9.00;;;;;;;14.00;98.49;102088.53;4968844;28;20227;-75
2022/10/29 03:54:59;;;;;;;15.43;9.13;;;;;;;13.97;98.88;102089.31;4971954;28;20196;-76
2022/10/29 03:57:24;;;;;;;17.63;9.23;;;;;;;13.88;98.75;102101.97;4972145;28;20212;-75
2022/10/29 03:59:49;;;;;;;19.03;8.80;;;;;;;13.90;99.00;102102.00;4971357;28;20216;-75
2022/10/29 04:02:15;;;;;;;22.10;9.53;;;;;;;13.85;98.79;102103.59;4970861;28;20212;-77
2022/10/29 04:04:40;;;;;;;17.50;9.00;;;;;;;13.74;98.20;102102.41;4962106;28;20255;-76
2022/10/29 04:07:06;;;;;;;13.17;7.87;;;;;;;13.63;98.21;102098.69;4971769;28;20191;-77
2022/10/29 04:09:31;;;;;;;17.23;9.20;;;;;;;13.57;97.54;102093.34;4971305;28;20235;-76
2022/10/29 04:11:56;;;;;;;15.87;8.80;;;;;;;13.56;98.07;102095.06;4968845;28;20244;-76
2022/10/29 04:14:22;;;;;;;15.23;8.47;;;;;;;13.50;97.39;102094.03;4958856;28;20203;-76
2022/10/29 04:16:47;;;;;;;16.83;9.37;;;;;;;13.44;98.01;102099.88;4971660;28;20207;-76
2022/10/29 04:19:13;;;;;;;16.30;8.93;;;;;;;13.44;97.50;102097.28;4969590;28;20203;-76
2022/10/29 04:21:38;;;;;;;17.67;8.97;;;;;;;13.42;98.08;102087.78;4971532;28;20222;-75
2022/10/29 04:24:04;;;;;;;18.70;8.90;;;;;;;13.39;98.03;102090.31;4971015;28;20215;-76
2022/10/29 04:26:29;;;;;;;17.47;8.80;;;;;;;13.35;97.95;102086.75;4971690;28;20281;-75
2022/10/29 04:28:55;;;;;;;15.33;7.97;;;;;;;13.22;98.76;102082.06;4971599;28;20337;-76
2022/10/29 04:31:20;;;;;;;14.10;8.47;;;;;;;13.21;97.92;102082.06;4971544;28;20653;-75
2022/10/29 04:33:46;;;;;;;18.23;8.70;;;;;;;13.09;98.18;102091.97;4962278;28;20271;-75
2022/10/29 04:36:11;;;;;;;15.63;8.73;;;;;;;13.09;98.42;102099.69;4968768;28;20704;-75
2022/10/29 04:38:37;;;;;;;20.10;8.77;;;;;;;13.05;98.09;102106.47;4969662;28;20183;-75
2022/10/29 04:41:03;;;;;;;14.30;8.10;;;;;;;12.98;98.27;102111.38;4970011;28;20623;-75
2022/10/29 04:43:29;;;;;;;15.27;9.50;;;;;;;12.95;98.96;102117.28;4969195;28;20665;-75
2022/10/29 04:45:56;;;;;;;17.40;9.90;;;;;;;12.99;100.00;102115.69;4970012;28;20193;-75
2022/10/29 04:48:25;;;;;;;22.87;12.73;;;;;;;13.03;100.00;102123.53;4971078;28;20226;-75
2022/10/29 04:50:50;;;;;;;31.37;13.27;;;;;;;13.03;100.00;102122.66;4969779;28;20188;-75
2022/10/29 04:53:16;;;;;;;40.13;12.93;;;;;;;13.04;100.00;102119.25;4968105;28;20208;-75
2022/10/29 04:55:42;;;;;;;19.80;11.70;;;;;;;12.91;100.00;102113.72;4965942;28;20188;-75
2022/10/29 04:58:13;;;;;;;25.60;10.70;;;;;;;12.83;100.00;102112.63;4968307;28;20195;-75
2022/10/29 05:00:39;;;;;;;20.37;11.23;;;;;;;12.76;100.00;102113.25;4971002;28;20275;-75
2022/10/29 05:03:04;;;;;;;18.73;10.73;;;;;;;12.63;100.00;102107.69;4982605;28;20220;-75
2022/10/29 05:05:30;;;;;;;24.83;10.70;;;;;;;12.59;100.00;102103.28;4971092;28;20207;-75
2022/10/29 05:08:00;;;;;;;22.10;11.37;;;;;;;12.49;99.41;102106.38;4970091;28;20782;-75
2022/10/29 05:10:27;;;;;;;20.27;11.10;;;;;;;12.53;99.71;102108.25;4984361;28;20211;-76
2022/10/29 05:12:58;;;;;;;17.27;9.40;;;;;;;12.54;99.09;102109.97;4985609;28;20200;-76
2022/10/29 05:15:23;;;;;;;22.30;10.20;;;;;;;12.56;98.78;102122.03;4969574;28;20607;-75
2022/10/29 05:17:49;;;;;;;18.80;10.87;;;;;;;12.65;99.54;102127.47;4970872;28;20192;-75
2022/10/29 05:20:14;;;;;;;23.50;12.47;;;;;;;12.74;100.00;102122.63;4970785;28;20203;-75
2022/10/29 05:22:40;;;;;;;21.57;12.43;;;;;;;12.80;100.00;102125.38;4973785;28;20207;-75
2022/10/29 05:25:05;;;;;;;21.13;12.77;;;;;;;12.95;100.00;102133.53;4973625;28;20250;-75
2022/10/29 05:27:31;;;;;;;25.07;14.67;;;;;;;13.00;100.00;102130.28;4973290;28;20295;-75
2022/10/29 05:29:56;;;;;;;22.60;13.50;;;;;;;13.03;100.00;102126.09;4972603;28;20554;-75
2022/10/29 05:32:21;;;;;;;21.07;13.40;;;;;;;12.97;100.00;102125.03;4971931;28;20984;-75
2022/10/29 05:34:47;;;;;;;20.33;12.90;;;;;;;12.93;100.00;102115.47;4974907;28;20195;-75
2022/10/29 05:37:12;;;;;;;19.77;13.27;;;;;;;12.89;100.00;102119.63;4974766;28;20196;-75
2022/10/29 05:39:38;;;;;;;20.87;13.50;;;;;;;12.84;100.00;102116.94;4974729;28;20188;-75
2022/10/29 05:42:04;;;;;;;22.77;13.37;;;;;;;12.77;100.00;102122.69;4974577;28;20584;-75
2022/10/29 05:44:30;;;;;;;19.70;11.83;;;;;;;12.71;100.00;102126.78;4973352;28;20243;-75
2022/10/29 05:46:55;;;;;;;21.67;11.63;;;;;;;12.69;100.00;102128.44;4973941;28;20184;-75
2022/10/29 05:49:20;;;;;;;16.23;11.20;;;;;;;12.68;100.00;102119.84;4964036;28;20254;-75
2022/10/29 05:51:46;;;;;;;19.97;11.40;;;;;;;12.63;100.00;102123.97;4980096;28;20226;-75
2022/10/29 05:54:11;;;;;;;20.53;12.03;;;;;;;12.61;100.00;102117.03;4971290;28;20191;-75
2022/10/29 05:56:37;;;;;;;18.37;12.60;;;;;;;12.60;100.00;102115.28;4974209;28;20227;-75
2022/10/29 05:59:02;;;;;;;18.20;11.83;;;;;;;12.54;100.00;102120.25;4974264;28;20786;-75
2022/10/29 06:01:27;;;;;;;18.07;10.63;;;;;;;12.50;100.00;102131.25;4956490;28;20199;-75
2022/10/29 06:03:53;;;;;;;18.73;11.20;;;;;;;12.48;100.00;102127.75;4973877;28;20216;-75
2022/10/29 06:06:18;;;;;;;18.30;11.07;;;;;;;12.45;100.00;102123.38;4969973;28;20219;-75
2022/10/29 06:08:44;;;;;;;17.67;10.50;;;;;;;12.42;100.00;102131.00;4970908;28;20924;-75
2022/10/29 06:11:09;;;;;;;17.47;11.13;;;;;;;12.45;100.00;102135.38;4972622;28;20283;-75
2022/10/29 06:13:35;;;;;;;17.10;10.53;;;;;;;12.45;100.00;102127.66;4973635;28;20246;-75
2022/10/29 06:16:00;;;;;;;19.90;10.90;;;;;;;12.38;100.00;102128.28;4973743;28;20251;-75
2022/10/29 06:18:26;;;;;;;15.07;9.40;;;;;;;12.30;100.00;102137.44;4971788;28;20610;-75
2022/10/29 06:21:01;;;;;;;14.53;9.80;;;;;;;12.28;100.00;102145.09;4972757;28;20208;-75
2022/10/29 06:23:27;;;;;;;14.87;8.23;;;;;;;12.23;100.00;102151.78;4972967;28;20223;-75
2022/10/29 06:25:53;;;;;;;14.50;9.60;;;;;;;12.23;100.00;102138.94;4973488;28;20730;-75
2022/10/29 06:28:18;;;;;;;16.80;9.77;;;;;;;12.26;100.00;102144.16;4973244;28;20295;-75
2022/10/29 06:30:48;;;;;;;30.50;9.93;;;;;;;12.27;99.97;102145.94;4970591;28;20212;-76
2022/10/29 06:33:17;;;;;;;35.13;11.67;;;;;;;12.30;100.00;102151.16;4973513;28;20212;-75
2022/10/29 06:35:43;;;;;;;24.53;10.77;;;;;;;12.33;100.00;102145.22;4972513;28;20287;-75
2022/10/29 06:38:09;;;;;;;36.13;11.30;;;;;;;12.36;100.00;102158.19;4974158;28;20264;-76
2022/10/29 06:40:34;;;;;;;30.63;9.60;;;;;;;12.38;100.00;102154.84;4973078;28;20200;-76
2022/10/29 06:43:02;;;;;;;24.33;10.50;;;;;;;12.41;100.00;102156.66;4964607;28;20252;-78
2022/10/29 06:45:29;;;;;;;73.57;12.40;;;;;;;12.40;100.00;102178.88;4967153;28;20266;-76
2022/10/29 06:47:54;;;;;;;27.17;9.73;;;;;;;12.36;100.00;102174.47;4972255;28;20894;-76
2022/10/29 06:50:20;;;;;;;16.73;10.33;;;;;;;12.39;100.00;102173.72;4973662;28;20199;-76
2022/10/29 06:53:00;;;;;;;21.30;11.10;;;;;;;12.38;100.00;102161.66;4970055;28;20271;-77
2022/10/29 06:55:26;;;;;;;24.17;10.93;;;;;;;12.37;100.00;102155.69;4971166;28;20658;-77
2022/10/29 06:58:15;;;;;;;33.50;11.90;;;;;;;12.36;100.00;102165.91;4973065;28;20181;-77
2022/10/29 07:00:41;;;;;;;32.63;12.57;;;;;;;12.37;100.00;102152.22;4972083;28;20595;-77
2022/10/29 07:03:15;;;;;;;25.50;13.73;;;;;;;12.43;100.00;102157.56;4971009;28;20236;-78
2022/10/29 07:05:40;;;;;;;34.27;16.10;;;;;;;12.51;100.00;102158.69;4968744;28;20237;-74
2022/10/29 07:08:06;;;;;;;39.50;16.03;;;;;;;12.48;100.00;102156.88;4971827;28;20220;-76
2022/10/29 07:10:32;;;;;;;43.07;16.87;;;;;;;12.51;100.00;102163.81;4970860;28;20204;-76
2022/10/29 07:12:59;;;;;;;38.77;16.17;;;;;;;12.53;100.00;102168.19;4972971;28;20682;-75
2022/10/29 07:15:25;;;;;;;40.13;17.30;;;;;;;12.56;100.00;102158.03;4970026;28;20196;-76
2022/10/29 07:18:01;;;;;;;26.60;16.47;;;;;;;12.62;100.00;102173.63;4958566;28;20259;-75
2022/10/29 07:20:29;;;;;;;25.07;16.83;;;;;;;12.68;100.00;102176.38;4967097;28;20283;-76
2022/10/29 07:22:56;;;;;;;26.43;16.20;;;;;;;12.75;100.00;102172.31;4968104;28;20216;-76
2022/10/29 07:25:22;;;;;;;37.80;21.50;;;;;;;12.80;100.00;102179.34;4970626;28;20192;-76
2022/10/29 07:27:48;;;;;;;56.70;29.37;;;;;;;12.88;100.00;102184.72;4967723;28;20213;-76
2022/10/29 07:30:14;;;;;;;43.07;23.57;;;;;;;12.94;100.00;102180.66;4958315;28;20660;-76
2022/10/29 07:32:39;;;;;;;47.00;23.30;;;;;;;13.02;100.00;102185.22;4972119;28;20223;-76
2022/10/29 07:35:05;;;;;;;33.47;20.33;;;;;;;13.06;100.00;102181.88;4972071;28;20204;-76
2022/10/29 07:37:31;;;;;;;29.93;18.40;;;;;;;13.10;100.00;102192.34;4972265;28;20408;-76
2022/10/29 07:39:56;;;;;;;30.90;19.23;;;;;;;13.16;100.00;102184.78;4972314;28;20200;-76
2022/10/29 07:42:22;;;;;;;28.90;18.33;;;;;;;13.24;100.00;102178.19;4972245;28;20215;-76
2022/10/29 07:44:47;;;;;;;62.63;32.17;;;;;;;13.33;100.00;102177.56;4967877;28;20193;-76
2022/10/29 07:47:13;;;;;;;38.90;23.17;;;;;;;13.39;100.00;102177.78;4968255;28;20189;-76
2022/10/29 07:49:38;;;;;;;43.90;26.70;;;;;;;13.46;100.00;102178.00;4965887;28;20675;-76
2022/10/29 07:52:03;;;;;;;43.53;26.13;;;;;;;13.52;100.00;102180.75;4970511;28;20220;-76
2022/10/29 07:54:29;;;;;;;35.57;22.30;;;;;;;13.59;100.00;102190.41;4969095;28;20187;-76
2022/10/29 07:56:54;;;;;;;35.33;22.67;;;;;;;13.62;100.00;102194.75;4970603;28;20219;-76
2022/10/29 07:59:20;;;;;;;35.07;21.23;;;;;;;13.65;100.00;102205.13;4972059;28;20824;-76
2022/10/29 08:01:46;;;;;;;33.10;20.20;;;;;;;13.65;100.00;102206.00;4971982;28;20204;-75
2022/10/29 08:04:12;;;;;;;35.43;23.60;;;;;;;13.68;100.00;102206.06;4971685;28;20207;-76
2022/10/29 08:06:38;;;;;;;33.77;19.10;;;;;;;13.69;100.00;102207.84;4969780;28;20192;-76
2022/10/29 08:09:03;;;;;;;32.10;18.80;;;;;;;13.73;100.00;102207.13;4970206;28;20400;-76
2022/10/29 08:11:31;;;;;;;33.93;18.97;;;;;;;13.74;100.00;102211.44;4970585;28;20576;-76
2022/10/29 08:13:57;;;;;;;28.10;18.93;;;;;;;13.79;100.00;102202.13;4967328;28;20242;-76
2022/10/29 08:16:22;;;;;;;33.67;20.07;;;;;;;13.82;100.00;102209.06;4971695;28;20199;-76
2022/10/29 08:18:47;;;;;;;33.77;19.90;;;;;;;13.90;100.00;102212.72;4970249;28;20184;-76
2022/10/29 08:21:14;;;;;;;37.47;19.50;;;;;;;13.92;100.00;102199.06;4971572;28;20211;-76
2022/10/29 08:23:39;;;;;;;28.97;18.37;;;;;;;13.98;100.00;102200.91;4971425;28;20208;-76
2022/10/29 08:26:05;;;;;;;32.40;19.20;;;;;;;14.03;100.00;102197.66;4971662;28;20538;-75
2022/10/29 08:28:30;;;;;;;28.33;18.53;;;;;;;14.12;100.00;102194.44;4970138;28;20594;-75
2022/10/29 08:30:55;;;;;;;37.33;20.20;;;;;;;14.18;100.00;102200.63;4968086;28;20184;-75
2022/10/29 08:33:21;;;;;;;33.73;19.63;;;;;;;14.23;100.00;102186.19;4969832;28;20873;-75
2022/10/29 08:35:47;;;;;;;35.83;19.80;;;;;;;14.26;100.00;102175.97;4967318;28;20269;-75
2022/10/29 08:38:12;;;;;;;33.57;19.77;;;;;;;14.30;100.00;102180.38;4968764;28;20181;-75
2022/10/29 08:40:48;;;;;;;37.47;19.30;;;;;;;14.31;100.00;102181.25;4971537;28;20192;-75
2022/10/29 08:43:55;;;;;;;36.20;19.33;;;;;;;14.35;100.00;102172.75;4965920;28;20232;-75
2022/10/29 08:46:35;;;;;;;28.77;17.80;;;;;;;14.39;100.00;102166.84;4894279;29;20197;-75
2022/10/29 08:49:05;;;;;;;33.10;19.37;;;;;;;14.43;100.00;102169.56;4919087;29;20213;-75
2022/10/29 08:51:37;;;;;;;35.77;20.93;;;;;;;14.54;100.00;102173.25;4950064;28;20215;-76
2022/10/29 08:54:03;;;;;;;33.87;19.47;;;;;;;14.58;100.00;102166.47;4970498;28;20212;-74
2022/10/29 08:56:33;;;;;;;40.60;20.40;;;;;;;14.70;100.00;102152.19;4969660;28;20219;-75
2022/10/29 08:59:05;;;;;;;38.67;22.40;;;;;;;14.77;100.00;102151.47;4961677;28;20203;-75
2022/10/29 09:01:31;;;;;;;38.33;21.77;;;;;;;14.88;100.00;102149.16;4967582;28;20199;-75
2022/10/29 09:03:56;;;;;;;34.37;21.70;;;;;;;14.89;100.00;102158.63;4950349;28;20273;-75
2022/10/29 09:06:29;;;;;;;36.37;21.73;;;;;;;14.97;100.00;102144.19;4960718;28;20636;-76
2022/10/29 09:09:18;;;;;;;35.40;20.43;;;;;;;15.06;100.00;102155.56;4959860;28;20223;-75
2022/10/29 09:12:00;;;;;;;36.53;22.20;;;;;;;15.05;100.00;102150.41;4947888;28;20232;-75
2022/10/29 09:14:28;;;;;;;36.37;22.77;;;;;;;15.07;100.00;102148.72;4966399;28;20251;-75
2022/10/29 09:17:09;;;;;;;49.50;26.90;;;;;;;15.02;100.00;102148.63;4960997;28;20235;-75
2022/10/29 09:19:47;;;;;;;52.77;25.97;;;;;;;14.99;100.00;102150.25;4967719;28;20180;-76
2022/10/29 09:22:26;;;;;;;47.13;26.73;;;;;;;15.06;100.00;102147.84;4971933;28;20220;-76
2022/10/29 09:24:51;;;;;;;50.97;26.90;;;;;;;15.10;100.00;102147.06;4969614;28;20203;-74
2022/10/29 09:27:39;;;;;;;59.33;26.10;;;;;;;15.13;100.00;102141.09;4970713;28;20184;-74
2022/10/29 09:30:17;;;;;;;50.57;26.90;;;;;;;15.16;100.00;102152.38;4969522;28;20196;-75
2022/10/29 09:33:07;;;;;;;57.13;27.80;;;;;;;15.18;100.00;102157.56;4966323;28;20593;-75
2022/10/29 09:35:43;;;;;;;59.50;28.57;;;;;;;15.20;100.00;102146.41;4951620;28;20174;-75
2022/10/29 09:38:23;;;;;;;49.00;27.47;;;;;;;15.27;100.00;102148.31;4952549;28;20666;-75
2022/10/29 09:40:48;;;;;;;52.47;27.90;;;;;;;15.24;100.00;102143.06;4969386;28;20203;-75
2022/10/29 09:43:55;;;;;;;56.80;29.43;;;;;;;15.24;100.00;102149.97;4969103;28;20224;-75
2022/10/29 09:46:30;;;;;;;50.90;27.40;;;;;;;15.20;100.00;102137.81;4940852;28;20678;-75
2022/10/29 09:49:33;;;;;;;56.37;27.53;;;;;;;15.23;100.00;102149.09;4952961;28;20292;-75
2022/10/29 09:52:05;;;;;;;63.70;29.13;;;;;;;15.29;100.00;102146.63;4951518;28;20227;-75
2022/10/29 09:54:31;;;;;;;50.97;26.03;;;;;;;15.52;100.00;102149.72;4955561;28;20218;-75
2022/10/29 09:57:01;;;;;;;53.80;28.93;;;;;;;15.82;100.00;102145.16;4969218;28;20192;-76
2022/10/29 09:59:39;;;;;;;49.43;27.77;;;;;;;15.93;100.00;102138.50;4970712;28;20192;-76
2022/10/29 10:02:40;;;;;;;49.50;26.40;;;;;;;15.91;100.00;102125.53;4970395;28;20681;-76
2022/10/29 10:05:12;;;;;;;52.87;26.57;;;;;;;15.89;100.00;102105.69;4936314;28;20580;-76
2022/10/29 10:07:41;;;;;;;51.43;26.00;;;;;;;15.85;100.00;102114.22;4971225;28;20204;-76
2022/10/29 10:10:21;;;;;;;47.93;25.80;;;;;;;15.95;100.00;102121.28;4973296;28;20204;-76
2022/10/29 10:12:49;;;;;;;45.30;24.73;;;;;;;16.13;99.53;102114.75;4973886;28;20244;-76
2022/10/29 10:15:14;;;;;;;45.97;24.87;;;;;;;16.24;98.50;102118.38;4974211;28;20178;-76
2022/10/29 10:17:58;;;;;;;44.20;24.83;;;;;;;16.30;98.36;102115.88;4956574;28;20192;-76
2022/10/29 10:20:38;;;;;;;43.33;25.30;;;;;;;16.26;98.01;102098.56;4972444;28;20231;-76
2022/10/29 10:23:19;;;;;;;43.93;24.93;;;;;;;16.27;98.58;102104.63;4963020;28;20554;-76
2022/10/29 10:25:45;;;;;;;45.90;25.17;;;;;;;16.24;98.85;102112.31;4973756;28;20674;-76
2022/10/29 10:28:24;;;;;;;42.37;25.70;;;;;;;16.17;98.76;102115.66;4972393;28;20247;-76
2022/10/29 10:31:12;;;;;;;43.97;24.87;;;;;;;16.13;99.41;102109.56;4972509;28;20220;-76
2022/10/29 10:33:52;;;;;;;44.90;25.77;;;;;;;16.16;99.28;102114.78;4984026;28;20216;-76
2022/10/29 10:36:25;;;;;;;47.30;26.37;;;;;;;16.33;98.87;102117.63;4971874;28;20184;-76
2022/10/29 10:38:56;;;;;;;42.27;24.43;;;;;;;16.51;98.32;102117.97;4972275;28;20180;-76
2022/10/29 10:41:34;;;;;;;41.10;23.97;;;;;;;16.66;97.88;102106.16;4971955;28;20198;-76
2022/10/29 10:44:02;;;;;;;43.30;25.17;;;;;;;16.89;96.77;102098.69;4972261;28;20188;-76
2022/10/29 10:46:36;;;;;;;42.13;23.53;;;;;;;17.07;95.85;102089.47;4972125;28;20287;-77
2022/10/29 10:49:05;;;;;;;43.40;24.10;;;;;;;17.19;95.10;102092.25;4973509;28;20216;-76
2022/10/29 10:51:36;;;;;;;45.90;24.70;;;;;;;17.41;93.95;102088.22;4973415;28;20666;-77
2022/10/29 10:54:26;;;;;;;43.00;23.27;;;;;;;17.71;92.68;102084.25;4973504;28;20196;-76
2022/10/29 10:56:58;;;;;;;39.73;22.43;;;;;;;17.99;90.76;102081.06;4971041;28;20290;-76
2022/10/29 10:59:29;;;;;;;35.03;21.83;;;;;;;18.06;89.71;102071.63;4971949;28;20943;-76
2022/10/29 11:01:59;;;;;;;38.73;22.43;;;;;;;18.52;88.27;102071.16;4969327;28;20213;-76
2022/10/29 11:04:32;;;;;;;31.67;20.27;;;;;;;18.36;87.07;102067.56;4973120;28;20267;-76
2022/10/29 11:07:03;;;;;;;32.33;18.10;;;;;;;18.42;87.47;102065.00;4973087;28;20504;-76
2022/10/29 11:09:44;;;;;;;29.43;19.07;;;;;;;18.65;86.67;102066.03;4971904;28;20685;-76
2022/10/29 11:12:46;;;;;;;29.73;18.37;;;;;;;18.44;87.87;102065.03;4968641;28;20204;-76
2022/10/29 11:15:14;;;;;;;31.70;17.60;;;;;;;18.31;88.15;102068.34;4967498;28;20195;-76
2022/10/29 11:17:48;;;;;;;29.47;19.03;;;;;;;18.25;88.38;102063.13;4972878;28;20275;-76